首页
METAR-TAF:

METAR-TAF

机场 :

罗纳德·里根华盛顿国家机场

华盛顿, 弗吉尼亚州, 美国

纬度: 38-50-54N, 经度: 077-02-03W, 海拔: 4米

当前天气观测

该预报发布于32分钟前的19:52 UTC
风速8节,风向
温度 30°C
湿度 62%
气压 1011 hPa
能見度: 16.1公里
散云层高于6500英尺
多云层高于17000英尺
阴天层高于25000英尺

METAR: KDCA 241952Z 17008KT 10SM SCT065 BKN170 OVC250 30/22 A2985 RMK AO2 SLP106 T03000222

时间: 16:24 (20:24 UTC)

预报

该预报发布于18分钟前的20:06 UTC
预报有效从24日的 20点(UTC)到 25日的 24点(UTC)
风速6节,风向
能見度: 9.7公里
多云层高于6000英尺, 积雨云.
小阵雨, 附近有雷暴
短暂存在
从 24日的 20点(UTC)到 24日的 21点(UTC)
风速20节,风向多变
能見度: 3.2公里
雷暴, 雨
从 24日的 2200点(UTC)
风速6节,风向南转南东
能見度: 10公里
多云层高于3500英尺
从 25日的 0500点(UTC)
风速6节,风向
能見度: 10公里
多云层高于6000英尺
附近有阵雨
从 25日的 0800点(UTC)
风速6节,风向西南
能見度: 10公里
多云层高于3500英尺
从 25日的 1000点(UTC)
风速6节,风向西
能見度: 10公里
多云层高于9000英尺
从 25日的 1400点(UTC)
风速9节,风向西转西北
能見度: 10公里
散云层高于12000英尺

TAF: KDCA 242006Z 2420/2524 19006KT 6SM -SHRA VCTS BKN060CB TEMPO 2420/2421 VRB20KT 2SM TSRA FM242200 16006KT P6SM BKN035 FM250500 19006KT P6SM VCSH BKN060 FM250800 22006KT P6SM BKN035 FM251000 26006KT P6SM BKN090 FM251400 30009KT P6SM SCT120

超过4000个机场的气象观测和天气预报(METAR&TAF报告)。

可查询的气象台以黄色和红色小点在地图上表示。

将鼠标移到小点上方,可查看气象台名称。

然后点击查看天气观测和预报。

如需切换地图:点击带黑十字的绿色按钮放大地图;点击带横线的绿色按钮缩小地图;或者点击绿色箭头查看邻近地区的地图。


METAR-TAF: